createdAt,value
2018-11-23T00:00:22.302Z,88.37
2018-11-23T00:02:51.439Z,92.40
2018-11-23T00:05:20.356Z,85.90
2018-11-23T00:07:49.397Z,87.40
2018-11-23T00:10:19.231Z,95.47
2018-11-23T00:12:47.920Z,81.43
2018-11-23T00:15:18.739Z,89.60
2018-11-23T00:17:47.268Z,88.20
2018-11-23T00:20:17.054Z,85.87
2018-11-23T00:22:45.584Z,101.03
2018-11-23T00:25:15.560Z,91.93
2018-11-23T00:27:44.096Z,93.37
2018-11-23T00:30:15.029Z,85.20
2018-11-23T00:32:43.855Z,91.30
2018-11-23T00:35:14.282Z,93.90
2018-11-23T00:37:43.058Z,93.23
2018-11-23T00:40:13.895Z,98.93
2018-11-23T00:42:43.119Z,86.30
2018-11-23T00:45:13.117Z,89.10
2018-11-23T00:47:42.282Z,95.80
2018-11-23T00:50:12.636Z,84.87
2018-11-23T00:52:42.005Z,89.80
2018-11-23T00:55:12.135Z,89.30
2018-11-23T00:57:40.715Z,84.37
2018-11-23T01:00:13.477Z,81.63
2018-11-23T01:02:42.248Z,86.33
2018-11-23T01:05:13.079Z,84.13
2018-11-23T01:07:42.242Z,85.80
2018-11-23T01:10:12.389Z,86.70
2018-11-23T01:12:40.972Z,75.33
2018-11-23T01:15:10.121Z,78.87
2018-11-23T01:17:38.670Z,73.83
2018-11-23T01:20:09.683Z,83.90
2018-11-23T01:22:38.660Z,74.23
2018-11-23T01:25:08.544Z,77.50
2018-11-23T01:27:37.038Z,80.70
2018-11-23T01:30:08.739Z,76.77
2018-11-23T01:32:37.241Z,84.73
2018-11-23T01:35:05.849Z,78.90
2018-11-23T01:37:34.461Z,74.43
2018-11-23T01:40:03.073Z,75.90
2018-11-23T01:42:31.619Z,78.07
2018-11-23T01:45:00.190Z,78.07
2018-11-23T01:47:28.690Z,84.20
2018-11-23T01:49:57.207Z,83.63
2018-11-23T01:52:25.738Z,85.17
2018-11-23T01:54:54.273Z,82.40
2018-11-23T01:57:22.784Z,79.00
2018-11-23T01:59:51.303Z,78.00
2018-11-23T02:02:19.867Z,84.77
2018-11-23T02:04:48.372Z,90.63
2018-11-23T02:07:16.878Z,89.20
2018-11-23T02:09:45.368Z,92.57
2018-11-23T02:12:13.952Z,84.90
2018-11-23T02:14:42.453Z,89.63
2018-11-23T02:17:10.999Z,90.90
2018-11-23T02:19:39.557Z,85.70
2018-11-23T02:22:08.080Z,88.07
2018-11-23T02:24:36.608Z,83.40
2018-11-23T02:27:05.118Z,90.30
2018-11-23T02:29:33.662Z,93.60
2018-11-23T02:32:02.185Z,86.27
2018-11-23T02:34:30.711Z,83.83
2018-11-23T02:36:59.253Z,89.10
2018-11-23T02:39:27.765Z,84.37
2018-11-23T02:41:56.231Z,86.67
2018-11-23T02:44:24.715Z,94.33
2018-11-23T02:46:53.364Z,85.13
2018-11-23T02:49:21.859Z,85.93
2018-11-23T02:51:50.447Z,88.30
2018-11-23T02:54:18.964Z,82.77
2018-11-23T02:56:47.755Z,98.87
2018-11-23T02:59:16.270Z,87.47
2018-11-23T03:01:44.771Z,90.80
2018-11-23T03:04:13.314Z,90.73
2018-11-23T03:06:41.880Z,89.67
2018-11-23T03:09:10.714Z,93.90
2018-11-23T03:11:40.440Z,86.70
2018-11-23T03:14:09.565Z,83.80
2018-11-23T03:16:38.392Z,91.77
2018-11-23T03:19:07.407Z,87.80
2018-11-23T03:21:35.999Z,87.50
2018-11-23T03:24:04.477Z,77.77
2018-11-23T03:26:32.952Z,89.47
2018-11-23T03:29:01.487Z,78.93
2018-11-23T03:31:29.988Z,82.63
2018-11-23T03:33:58.495Z,88.73
2018-11-23T03:36:27.018Z,88.93
2018-11-23T03:38:55.537Z,86.40
2018-11-23T03:41:24.033Z,84.27
2018-11-23T03:43:52.568Z,85.43
2018-11-23T03:46:21.038Z,90.43
2018-11-23T03:48:49.512Z,89.53
2018-11-23T03:51:17.992Z,82.47
2018-11-23T03:53:46.497Z,82.03
2018-11-23T03:56:14.995Z,92.07
2018-11-23T03:58:43.509Z,97.85
2018-11-23T04:01:11.989Z,87.67
2018-11-23T04:03:40.536Z,90.67
2018-11-23T04:06:09.025Z,78.33
2018-11-23T04:08:37.493Z,89.27
2018-11-23T04:11:06.191Z,88.40
2018-11-23T04:13:34.762Z,91.10
2018-11-23T04:16:03.293Z,83.43
2018-11-23T04:18:31.779Z,87.47
2018-11-23T04:21:01.549Z,90.30
2018-11-23T04:23:31.159Z,90.70
2018-11-23T04:25:59.931Z,90.27
2018-11-23T04:28:29.203Z,90.20
2018-11-23T04:30:57.692Z,92.07
2018-11-23T04:33:26.806Z,89.30
2018-11-23T04:35:55.716Z,87.53
2018-11-23T04:38:24.244Z,84.33
2018-11-23T04:40:52.716Z,91.47
2018-11-23T04:43:21.238Z,86.57
2018-11-23T04:45:49.797Z,84.53
2018-11-23T04:48:18.336Z,85.03
2018-11-23T04:50:46.852Z,95.17
2018-11-23T04:53:15.379Z,86.30
2018-11-23T04:55:44.447Z,82.20
2018-11-23T04:58:12.948Z,89.53
2018-11-23T05:00:41.455Z,86.10
2018-11-23T05:03:10.090Z,86.30
2018-11-23T05:05:38.686Z,90.03
2018-11-23T05:08:07.226Z,94.20
2018-11-23T05:10:35.748Z,83.63
2018-11-23T05:13:04.477Z,92.90
2018-11-23T05:15:33.007Z,89.57
2018-11-23T05:18:01.546Z,93.77
2018-11-23T05:20:30.075Z,88.63
2018-11-23T05:22:58.603Z,96.37
2018-11-23T05:25:27.100Z,89.67
2018-11-23T05:27:55.697Z,89.60
2018-11-23T05:30:26.476Z,96.93
2018-11-23T05:32:55.024Z,86.10
2018-11-23T05:35:23.544Z,90.87
2018-11-23T05:37:52.054Z,90.57
2018-11-23T05:40:21.159Z,92.13
2018-11-23T05:42:49.683Z,88.13
2018-11-23T05:45:19.704Z,96.57
2018-11-23T05:47:48.425Z,93.57
2018-11-23T05:50:18.444Z,93.73
2018-11-23T05:52:47.016Z,94.57
2018-11-23T05:55:15.651Z,92.17
2018-11-23T05:57:44.307Z,98.80
2018-11-23T06:00:17.729Z,105.93
2018-11-23T06:02:46.287Z,101.07
2018-11-23T06:05:14.853Z,94.70
2018-11-23T06:07:43.333Z,89.70
2018-11-23T06:10:14.734Z,98.77
2018-11-23T06:12:43.351Z,96.20
2018-11-23T06:15:14.430Z,91.50
2018-11-23T06:17:43.467Z,89.53
2018-11-23T06:20:14.196Z,99.73
2018-11-23T06:22:43.475Z,91.87
2018-11-23T06:25:15.070Z,98.10
2018-11-23T06:27:43.558Z,104.03
2018-11-23T06:30:13.071Z,97.43
2018-11-23T06:32:52.911Z,100.00
2018-11-23T06:35:21.444Z,94.87
2018-11-23T06:37:49.972Z,96.03
2018-11-23T06:40:19.024Z,95.60
2018-11-23T06:42:47.581Z,90.67
2018-11-23T06:45:16.164Z,96.13
2018-11-23T06:47:44.741Z,95.83
2018-11-23T06:50:14.826Z,92.30
2018-11-23T06:52:43.337Z,96.07
2018-11-23T06:55:12.426Z,93.17
2018-11-23T06:57:41.513Z,94.90
2018-11-23T07:00:12.650Z,92.13
2018-11-23T07:02:41.654Z,90.83
2018-11-23T07:05:10.604Z,93.20
2018-11-23T07:07:39.170Z,90.70
2018-11-23T07:10:08.984Z,91.83
2018-11-23T07:12:37.998Z,88.57
2018-11-23T07:15:08.627Z,93.00
2018-11-23T07:17:37.365Z,100.63
2018-11-23T07:20:07.744Z,94.43
2018-11-23T07:22:36.265Z,96.90
2018-11-23T07:25:05.357Z,96.43
2018-11-23T07:27:33.895Z,87.27
2018-11-23T07:30:02.493Z,88.80
2018-11-23T07:32:31.269Z,88.37
2018-11-23T07:35:00.752Z,92.70
2018-11-23T07:37:29.300Z,88.50
2018-11-23T07:40:09.026Z,91.67
2018-11-23T07:42:37.573Z,93.20
2018-11-23T07:45:06.104Z,89.87
2018-11-23T07:47:34.703Z,89.07
2018-11-23T07:50:03.238Z,86.13
2018-11-23T07:52:32.580Z,77.53
2018-11-23T07:55:01.118Z,92.90
2018-11-23T07:57:29.688Z,95.33
2018-11-23T07:59:58.169Z,79.30
2018-11-23T08:02:26.693Z,84.70
2018-11-23T08:04:55.197Z,81.03
2018-11-23T08:07:23.803Z,81.97
2018-11-23T08:09:52.334Z,87.60
2018-11-23T08:12:20.866Z,80.00
2018-11-23T08:14:49.381Z,80.53
2018-11-23T08:17:17.938Z,82.43
2018-11-23T08:19:47.404Z,78.07
2018-11-23T08:22:14.965Z,88.93
2018-11-23T08:24:44.167Z,83.50
2018-11-23T08:27:12.787Z,86.13
2018-11-23T08:29:41.287Z,83.50
2018-11-23T08:32:09.865Z,76.73
2018-11-23T08:34:38.361Z,80.63
2018-11-23T08:37:06.933Z,89.10
2018-11-23T08:39:35.459Z,80.00
2018-11-23T08:42:03.977Z,78.70
2018-11-23T08:44:35.394Z,78.17
2018-11-23T08:47:03.982Z,72.80
2018-11-23T08:49:32.500Z,71.10
2018-11-23T08:52:00.997Z,67.87
2018-11-23T08:54:29.552Z,83.20
2018-11-23T08:56:58.099Z,74.37
2018-11-23T08:59:26.568Z,70.03
2018-11-23T09:01:55.096Z,72.00
2018-11-23T09:04:23.580Z,71.17
2018-11-23T09:06:52.937Z,67.60
2018-11-23T09:09:21.499Z,65.30
2018-11-23T09:11:49.945Z,65.07
2018-11-23T09:14:18.541Z,62.57
2018-11-23T09:16:47.087Z,58.77
2018-11-23T09:19:15.697Z,60.27
2018-11-23T09:21:44.214Z,59.17
2018-11-23T09:24:12.771Z,54.93
2018-11-23T09:26:41.328Z,50.77
2018-11-23T09:29:09.808Z,54.33
2018-11-23T09:31:38.375Z,53.63
2018-11-23T09:34:06.832Z,53.30
2018-11-23T09:36:35.300Z,51.63
2018-11-23T09:39:05.271Z,51.47
2018-11-23T09:41:33.795Z,46.47
2018-11-23T09:44:02.276Z,49.67
2018-11-23T09:46:30.909Z,50.70
2018-11-23T09:48:59.422Z,49.10
2018-11-23T09:51:27.914Z,45.43
2018-11-23T09:53:56.413Z,42.27
2018-11-23T09:56:24.917Z,51.07
2018-11-23T09:58:53.393Z,44.10
2018-11-23T10:01:21.930Z,44.40
2018-11-23T10:03:50.469Z,46.60
2018-11-23T10:06:19.027Z,44.87
2018-11-23T10:08:47.565Z,39.47
2018-11-23T10:11:16.115Z,37.37
2018-11-23T10:13:44.583Z,36.13
2018-11-23T10:16:13.061Z,36.13
2018-11-23T10:18:41.585Z,35.93
2018-11-23T10:21:10.199Z,33.53
2018-11-23T10:23:38.731Z,35.17
2018-11-23T10:26:07.389Z,34.80
2018-11-23T10:28:35.928Z,34.13
2018-11-23T10:31:04.539Z,33.00
2018-11-23T10:33:33.082Z,35.53
2018-11-23T10:36:02.632Z,37.00
2018-11-23T10:38:31.215Z,33.87
2018-11-23T10:40:59.704Z,33.90
2018-11-23T10:43:28.198Z,35.50
2018-11-23T10:45:56.710Z,34.57
2018-11-23T10:48:25.236Z,30.77
2018-11-23T10:50:53.782Z,33.33
2018-11-23T10:53:22.352Z,36.40
2018-11-23T10:55:50.889Z,33.63
2018-11-23T10:58:19.472Z,36.40
2018-11-23T11:00:54.207Z,37.03
2018-11-23T11:03:38.984Z,38.57
2018-11-23T11:06:14.283Z,37.97
2018-11-23T11:08:42.981Z,42.60
2018-11-23T11:11:13.769Z,43.17
2018-11-23T11:13:40.048Z,36.60
2018-11-23T11:16:08.577Z,34.03
2018-11-23T11:18:37.086Z,40.77
2018-11-23T11:21:05.734Z,44.53
2018-11-23T11:23:34.289Z,39.23
2018-11-23T11:26:02.456Z,36.20
2018-11-23T11:28:31.030Z,32.73
2018-11-23T11:30:59.548Z,34.07
2018-11-23T11:33:28.065Z,28.77
2018-11-23T11:35:56.875Z,34.23
2018-11-23T11:38:25.360Z,32.17
2018-11-23T11:40:53.916Z,35.00
2018-11-23T11:43:22.455Z,35.10
2018-11-23T11:45:50.957Z,35.07
2018-11-23T11:48:20.872Z,33.07
2018-11-23T11:50:49.471Z,34.73
2018-11-23T11:53:18.023Z,36.60
2018-11-23T11:55:46.635Z,36.93
2018-11-23T11:58:15.124Z,31.33
2018-11-23T12:00:43.730Z,39.13
2018-11-23T12:03:12.223Z,35.60
2018-11-23T12:05:40.766Z,41.03
2018-11-23T12:08:09.542Z,35.43
2018-11-23T12:10:38.104Z,36.70
2018-11-23T12:13:06.648Z,33.47
2018-11-23T12:15:35.194Z,53.67
2018-11-23T12:18:03.971Z,50.77
2018-11-23T12:20:34.175Z,42.40
2018-11-23T12:23:02.694Z,34.33
2018-11-23T12:25:31.231Z,36.77
2018-11-23T12:27:59.836Z,31.67
2018-11-23T12:30:28.413Z,30.57
2018-11-23T12:32:56.936Z,32.43
2018-11-23T12:35:25.609Z,33.33
2018-11-23T12:37:54.219Z,33.70
2018-11-23T12:40:22.817Z,35.83
2018-11-23T12:42:51.419Z,41.33
2018-11-23T12:45:21.367Z,45.37
2018-11-23T12:47:49.980Z,45.73
2018-11-23T12:50:20.554Z,32.20
2018-11-23T12:52:49.130Z,35.47
2018-11-23T12:55:18.178Z,34.10
2018-11-23T12:57:46.842Z,36.07
2018-11-23T13:00:22.937Z,40.57
2018-11-23T13:02:57.220Z,37.20
2018-11-23T13:05:26.778Z,35.10
2018-11-23T13:07:56.619Z,36.03
2018-11-23T13:10:25.959Z,45.93
2018-11-23T13:12:55.621Z,40.70
2018-11-23T13:15:24.469Z,39.27
2018-11-23T13:17:53.301Z,42.33
2018-11-23T13:20:21.889Z,48.60
2018-11-23T13:22:50.785Z,49.60
2018-11-23T13:25:20.989Z,40.43
2018-11-23T13:27:49.730Z,38.57
2018-11-23T13:30:20.679Z,50.57
2018-11-23T13:32:49.256Z,39.90
2018-11-23T13:35:18.730Z,39.83
2018-11-23T13:37:47.257Z,49.57
2018-11-23T13:40:17.257Z,41.07
2018-11-23T13:42:46.267Z,39.30
2018-11-23T13:45:18.255Z,36.27
2018-11-23T13:47:46.952Z,36.23
2018-11-23T13:50:17.801Z,32.00
2018-11-23T13:52:47.292Z,42.80
2018-11-23T13:55:15.897Z,37.80
2018-11-23T13:57:44.573Z,41.40
2018-11-23T14:00:16.549Z,38.40
2018-11-23T14:02:46.026Z,42.80
2018-11-23T14:05:16.234Z,37.87
2018-11-23T14:07:46.432Z,38.93
2018-11-23T14:10:16.424Z,35.73
2018-11-23T14:12:45.911Z,39.27
2018-11-23T14:15:16.237Z,43.33
2018-11-23T14:17:46.129Z,35.43
2018-11-23T14:20:15.981Z,43.07
2018-11-23T14:22:44.595Z,39.63
2018-11-23T14:25:14.752Z,39.37
2018-11-23T14:27:43.905Z,43.37
2018-11-23T14:30:15.337Z,44.23
2018-11-23T14:32:43.873Z,40.27
2018-11-23T14:35:15.749Z,39.03
2018-11-23T14:37:44.976Z,42.17
2018-11-23T14:40:14.237Z,40.77
2018-11-23T14:42:43.713Z,39.93
2018-11-23T14:45:14.883Z,38.63
2018-11-23T14:47:43.516Z,41.87
2018-11-23T14:50:16.383Z,39.47
2018-11-23T14:52:46.390Z,42.80
2018-11-23T14:55:15.428Z,41.67
2018-11-23T14:57:45.238Z,42.70
2018-11-23T15:00:17.259Z,43.30
2018-11-23T15:02:47.113Z,48.80
2018-11-23T15:05:16.878Z,47.17
2018-11-23T15:07:45.401Z,53.03
2018-11-23T15:10:16.537Z,44.13
2018-11-23T15:12:45.986Z,46.07
2018-11-23T15:15:16.056Z,43.97
2018-11-23T15:17:46.026Z,48.03
2018-11-23T15:20:18.107Z,46.03
2018-11-23T15:22:48.385Z,45.50
2018-11-23T15:25:16.973Z,48.10
2018-11-23T15:27:46.274Z,44.30
2018-11-23T15:30:24.105Z,48.83
2018-11-23T15:32:53.109Z,43.43
2018-11-23T15:35:21.775Z,43.83
2018-11-23T15:37:50.452Z,47.17
2018-11-23T15:40:21.711Z,49.27
2018-11-23T15:42:51.484Z,47.70
2018-11-23T15:45:22.513Z,45.87
2018-11-23T15:47:51.533Z,49.37
2018-11-23T15:50:23.147Z,48.23
2018-11-23T15:52:51.683Z,47.47
2018-11-23T15:55:23.008Z,46.60
2018-11-23T15:57:52.612Z,51.73
2018-11-23T16:00:24.977Z,47.80
2018-11-23T16:02:54.470Z,48.90
2018-11-23T16:05:23.480Z,52.33
2018-11-23T16:07:53.319Z,52.40
2018-11-23T16:10:26.556Z,50.40
2018-11-23T16:12:56.968Z,52.23
2018-11-23T16:15:26.756Z,52.43
2018-11-23T16:17:57.129Z,53.00
2018-11-23T16:20:30.446Z,52.77
2018-11-23T16:23:01.591Z,52.27
2018-11-23T16:25:30.360Z,50.40
2018-11-23T16:28:00.500Z,52.30
2018-11-23T16:30:31.567Z,55.47
2018-11-23T16:33:05.655Z,55.67
2018-11-23T16:38:33.067Z,50.00
2018-11-23T16:41:11.906Z,54.83
2018-11-23T16:43:40.818Z,58.47
2018-11-23T16:49:19.063Z,54.10
2018-11-23T16:51:47.604Z,57.13
2018-11-23T16:54:16.146Z,50.87
2018-11-23T16:56:46.031Z,50.90
2018-11-23T16:59:15.543Z,54.57
2018-11-23T17:01:44.233Z,56.20
2018-11-23T17:04:14.502Z,57.27
2018-11-23T17:06:45.812Z,56.07
2018-11-23T17:09:14.465Z,65.83
2018-11-23T17:11:43.293Z,63.83
2018-11-23T17:14:12.021Z,60.13
2018-11-23T17:16:41.017Z,60.53
2018-11-23T17:19:11.670Z,59.63
2018-11-23T17:21:46.882Z,60.90
2018-11-23T17:24:16.254Z,58.87
2018-11-23T17:26:44.925Z,60.07
2018-11-23T17:29:13.629Z,61.53
2018-11-23T17:31:42.349Z,64.23
2018-11-23T17:34:11.021Z,60.77
2018-11-23T17:36:40.664Z,63.00
2018-11-23T17:39:09.837Z,66.60
2018-11-23T17:41:38.577Z,73.00
2018-11-23T17:44:07.409Z,66.30
2018-11-23T17:46:35.989Z,69.10
2018-11-23T17:49:04.808Z,70.33
2018-11-23T17:51:33.596Z,69.60
2018-11-23T17:54:05.894Z,74.97
2018-11-23T17:56:52.513Z,62.07
2018-11-23T17:59:41.284Z,71.60
2018-11-23T18:02:10.352Z,70.80
2018-11-23T18:04:39.243Z,67.30
2018-11-23T18:07:08.057Z,76.33
2018-11-23T18:09:36.681Z,69.17
2018-11-23T18:12:05.377Z,68.20
2018-11-23T18:14:34.101Z,69.97
2018-11-23T18:17:02.945Z,70.00
2018-11-23T18:19:37.214Z,66.10
2018-11-23T18:22:05.910Z,70.83
2018-11-23T18:24:35.322Z,63.70
2018-11-23T18:27:04.231Z,67.90
2018-11-23T18:29:32.948Z,73.17
2018-11-23T18:32:01.662Z,80.57
2018-11-23T18:34:30.411Z,73.37
2018-11-23T18:36:58.996Z,72.93
2018-11-23T18:39:27.539Z,73.33
2018-11-23T18:41:56.293Z,79.73
2018-11-23T18:44:25.080Z,81.33
2018-11-23T18:46:53.695Z,79.63
2018-11-23T18:49:22.434Z,80.40
2018-11-23T18:51:53.290Z,80.17
2018-11-23T18:54:22.075Z,68.10
2018-11-23T18:56:52.504Z,91.67
2018-11-23T18:59:20.334Z,86.40
2018-11-23T19:01:49.856Z,80.93
2018-11-23T19:04:19.972Z,72.40
2018-11-23T19:06:49.572Z,76.20
2018-11-23T19:09:18.225Z,79.40
2018-11-23T19:11:46.941Z,78.63
2018-11-23T19:14:15.697Z,76.23
2018-11-23T19:16:46.065Z,81.77
2018-11-23T19:19:21.436Z,76.43
2018-11-23T19:21:50.911Z,77.20
2018-11-23T19:24:20.670Z,78.73
2018-11-23T19:26:49.536Z,90.27
2018-11-23T19:29:18.106Z,86.10
2018-11-23T19:31:46.746Z,91.43
2018-11-23T19:34:15.692Z,85.63
2018-11-23T19:36:45.501Z,89.40
2018-11-23T19:39:20.261Z,105.50
2018-11-23T19:41:49.547Z,94.13
2018-11-23T19:44:18.199Z,86.63
2018-11-23T19:46:47.083Z,75.73
2018-11-23T19:49:15.599Z,83.03
2018-11-23T19:51:45.706Z,83.30
2018-11-23T19:54:15.765Z,77.57
2018-11-23T19:56:44.885Z,74.03
2018-11-23T19:59:13.990Z,84.00
2018-11-23T20:01:45.311Z,89.50
2018-11-23T20:04:15.627Z,101.93
2018-11-23T20:06:44.656Z,87.73
2018-11-23T20:09:16.248Z,92.43
2018-11-23T20:11:46.331Z,184.30
2018-11-23T20:14:15.344Z,185.43
2018-11-23T20:16:52.135Z,254.67
2018-11-23T20:19:20.999Z,296.10
2018-11-23T20:21:49.679Z,154.93
2018-11-23T20:24:18.268Z,277.53
2018-11-23T20:26:46.990Z,254.33
2018-11-23T20:29:15.990Z,327.67
2018-11-23T20:31:44.643Z,217.47
2018-11-23T20:34:13.264Z,344.07
2018-11-23T20:36:41.889Z,257.57
2018-11-23T20:39:10.827Z,191.23
2018-11-23T20:41:39.839Z,367.87
2018-11-23T20:44:08.623Z,379.50
2018-11-23T20:46:37.896Z,284.17
2018-11-23T20:49:06.744Z,448.87
2018-11-23T20:51:35.635Z,290.97
2018-11-23T20:54:04.349Z,134.63
2018-11-23T20:56:33.785Z,238.80
2018-11-23T20:59:02.128Z,213.37
2018-11-23T21:01:31.858Z,218.00
2018-11-23T21:07:37.886Z,86.83
2018-11-23T21:10:10.433Z,137.23
2018-11-23T21:12:39.107Z,217.07
2018-11-23T21:15:15.022Z,122.90
2018-11-23T21:17:43.845Z,82.43
2018-11-23T21:20:12.762Z,100.93
2018-11-23T21:23:20.089Z,86.70
2018-11-23T21:29:19.239Z,255.27
2018-11-23T21:31:48.102Z,151.33
2018-11-23T21:34:17.000Z,143.97
2018-11-23T21:36:45.631Z,220.10
2018-11-23T21:39:14.324Z,153.77
2018-11-23T21:41:43.034Z,105.83
2018-11-23T21:44:11.655Z,182.60
2018-11-23T21:46:40.270Z,119.97
2018-11-23T21:49:08.922Z,202.13
2018-11-23T21:51:37.572Z,157.90
2018-11-23T21:54:06.233Z,232.63
2018-11-23T21:56:34.890Z,164.03
2018-11-23T21:59:03.599Z,162.17
2018-11-23T22:01:32.221Z,288.63
2018-11-23T22:04:06.343Z,347.53
2018-11-23T22:06:29.565Z,274.33
2018-11-23T22:08:58.856Z,305.87
2018-11-23T22:11:27.483Z,441.73
2018-11-23T22:13:56.226Z,239.77
2018-11-23T22:16:24.822Z,250.00
2018-11-23T22:18:53.484Z,198.83
2018-11-23T22:21:22.066Z,118.80
2018-11-23T22:23:50.690Z,326.80
2018-11-23T22:26:19.437Z,202.00
2018-11-23T22:28:48.059Z,318.07
2018-11-23T22:31:16.813Z,302.93
2018-11-23T22:33:45.632Z,413.17
2018-11-23T22:36:14.257Z,171.50
2018-11-23T22:38:42.831Z,319.33
2018-11-23T22:41:11.451Z,354.20
2018-11-23T22:43:40.869Z,292.73
2018-11-23T22:46:09.439Z,202.27
2018-11-23T22:48:43.425Z,184.23
2018-11-23T22:51:12.024Z,146.17
2018-11-23T22:53:40.625Z,147.17
2018-11-23T22:56:09.214Z,198.33
2018-11-23T22:58:38.053Z,160.00
2018-11-23T23:01:06.660Z,140.13
2018-11-23T23:03:35.304Z,143.33
2018-11-23T23:06:03.922Z,145.03
2018-11-23T23:08:32.508Z,183.80
2018-11-23T23:11:01.991Z,157.27
2018-11-23T23:13:30.546Z,208.20
2018-11-23T23:15:59.231Z,223.00
2018-11-23T23:18:27.845Z,205.83
2018-11-23T23:20:56.379Z,298.03
2018-11-23T23:23:25.041Z,166.33
2018-11-23T23:25:53.649Z,191.37
2018-11-23T23:28:22.209Z,188.20
2018-11-23T23:30:50.704Z,250.93
2018-11-23T23:33:19.248Z,216.17
2018-11-23T23:35:54.112Z,163.17
2018-11-23T23:38:24.371Z,117.60
2018-11-23T23:55:16.767Z,88.80
